createdAt,value
2018-09-07T00:01:02.511Z,101279.50
2018-09-07T00:03:30.538Z,101285.06
2018-09-07T00:05:58.853Z,101284.98
2018-09-07T00:08:28.417Z,101288.67
2018-09-07T00:10:56.558Z,101284.50
2018-09-07T00:13:24.628Z,101279.71
2018-09-07T00:15:52.702Z,101279.71
2018-09-07T00:18:20.766Z,101273.28
2018-09-07T00:20:48.867Z,101274.22
2018-09-07T00:23:16.974Z,101270.54
2018-09-07T00:25:45.057Z,101270.06
2018-09-07T00:28:13.154Z,101264.53
2018-09-07T00:30:41.260Z,101257.29
2018-09-07T00:33:09.506Z,101266.48
2018-09-07T00:35:37.679Z,101259.61
2018-09-07T00:38:06.538Z,101260.57
2018-09-07T00:40:34.887Z,101256.72
2018-09-07T00:43:02.998Z,101244.67
2018-09-07T00:45:31.128Z,101246.28
2018-09-07T00:47:59.176Z,101239.92
2018-09-07T00:50:27.236Z,101241.16
2018-09-07T00:52:55.413Z,101241.03
2018-09-07T00:55:23.523Z,101250.09
2018-09-07T00:57:51.606Z,101247.22
2018-09-07T01:00:21.067Z,101245.62
2018-09-07T01:02:50.335Z,101243.73
2018-09-07T01:05:18.881Z,101243.72
2018-09-07T01:07:47.069Z,101244.85
2018-09-07T01:10:15.587Z,101247.16
2018-09-07T01:12:44.789Z,101253.77
2018-09-07T01:15:13.211Z,101249.02
2018-09-07T01:17:42.328Z,101247.80
2018-09-07T01:20:12.284Z,101245.08
2018-09-07T01:22:40.574Z,101245.84
2018-09-07T01:25:11.051Z,101237.91
2018-09-07T01:27:39.841Z,101238.59
2018-09-07T01:30:08.491Z,101244.62
2018-09-07T01:32:42.263Z,101245.27
2018-09-07T01:35:11.527Z,101243.27
2018-09-07T01:37:45.567Z,101243.20
2018-09-07T01:40:14.200Z,101237.66
2018-09-07T01:42:42.865Z,101231.44
2018-09-07T01:45:12.297Z,101228.14
2018-09-07T01:47:41.495Z,101221.50
2018-09-07T01:50:09.723Z,101217.84
2018-09-07T01:52:38.376Z,101214.88
2018-09-07T01:55:08.288Z,101205.21
2018-09-07T01:57:36.654Z,101208.67
2018-09-07T02:00:05.139Z,101203.30
2018-09-07T02:02:34.499Z,101201.28
2018-09-07T02:05:03.128Z,101196.34
2018-09-07T02:07:33.291Z,101190.86
2018-09-07T02:10:02.083Z,101192.80
2018-09-07T02:12:31.017Z,101200.44
2018-09-07T02:15:04.227Z,101199.27
2018-09-07T02:17:36.444Z,101209.59
2018-09-07T02:20:05.052Z,101202.77
2018-09-07T02:22:33.163Z,101202.97
2018-09-07T02:25:02.457Z,101202.04
2018-09-07T02:27:30.884Z,101197.77
2018-09-07T02:29:59.151Z,101193.26
2018-09-07T02:32:27.723Z,101196.94
2018-09-07T02:34:56.324Z,101190.44
2018-09-07T02:37:25.056Z,101186.21
2018-09-07T02:42:33.754Z,101184.78
2018-09-07T02:45:02.423Z,101184.69
2018-09-07T02:47:32.533Z,101183.58
2018-09-07T02:50:02.252Z,101182.98
2018-09-07T02:52:31.741Z,101178.80
2018-09-07T02:55:01.356Z,101183.03
2018-09-07T02:57:29.806Z,101180.03
2018-09-07T02:59:58.438Z,101181.19
2018-09-07T03:02:27.451Z,101182.22
2018-09-07T03:04:55.902Z,101178.70
2018-09-07T03:07:25.476Z,101174.04
2018-09-07T03:09:54.108Z,101166.50
2018-09-07T03:12:23.943Z,101171.89
2018-09-07T03:14:54.540Z,101157.83
2018-09-07T03:17:24.829Z,101152.15
2018-09-07T03:19:54.565Z,101157.38
2018-09-07T03:22:23.716Z,101157.16
2018-09-07T03:24:52.174Z,101161.11
2018-09-07T03:27:20.791Z,101159.73
2018-09-07T03:29:49.222Z,101153.84
2018-09-07T03:32:18.692Z,101152.95
2018-09-07T03:34:47.204Z,101154.05
2018-09-07T03:37:15.716Z,101149.39
2018-09-07T03:39:44.628Z,101140.74
2018-09-07T03:42:13.169Z,101141.09
2018-09-07T03:44:41.641Z,101147.92
2018-09-07T03:47:10.761Z,101136.27
2018-09-07T03:49:39.167Z,101138.42
2018-09-07T03:52:07.789Z,101146.05
2018-09-07T03:54:36.283Z,101138.31
2018-09-07T03:57:04.791Z,101139.92
2018-09-07T03:59:34.049Z,101146.38
2018-09-07T04:02:02.569Z,101145.10
2018-09-07T04:04:32.537Z,101143.41
2018-09-07T04:07:01.639Z,101140.23
2018-09-07T04:09:30.768Z,101149.17
2018-09-07T04:12:00.346Z,101143.25
2018-09-07T04:14:28.974Z,101134.76
2018-09-07T04:16:57.522Z,101142.00
2018-09-07T04:19:27.646Z,101136.01
2018-09-07T04:21:56.444Z,101141.97
2018-09-07T04:24:30.456Z,101137.17
2018-09-07T04:26:59.896Z,101139.36
2018-09-07T04:29:34.589Z,101136.23
2018-09-07T04:32:07.404Z,101146.80
2018-09-07T04:34:36.011Z,101149.13
2018-09-07T04:37:07.156Z,101152.12
2018-09-07T04:39:36.044Z,101150.14
2018-09-07T04:42:04.592Z,101158.52
2018-09-07T04:44:33.831Z,101158.73
2018-09-07T04:47:02.858Z,101161.44
2018-09-07T04:49:31.474Z,101162.70
2018-09-07T04:52:00.172Z,101154.59
2018-09-07T04:54:28.682Z,101165.78
2018-09-07T04:56:58.440Z,101165.94
2018-09-07T04:59:27.709Z,101168.69
2018-09-07T05:01:56.476Z,101168.52
2018-09-07T05:04:26.479Z,101162.41
2018-09-07T05:06:55.035Z,101154.59
2018-09-07T05:09:24.754Z,101154.45
2018-09-07T05:11:54.993Z,101159.01
2018-09-07T05:14:23.389Z,101164.78
2018-09-07T05:16:52.345Z,101173.80
2018-09-07T05:19:20.723Z,101181.72
2018-09-07T05:21:49.128Z,101177.44
2018-09-07T05:24:17.552Z,101187.56
2018-09-07T05:26:45.901Z,101186.72
2018-09-07T05:29:14.436Z,101194.70
2018-09-07T05:31:43.053Z,101198.34
2018-09-07T05:34:11.608Z,101202.45
2018-09-07T05:36:40.014Z,101203.33
2018-09-07T05:39:10.106Z,101196.74
2018-09-07T05:41:38.718Z,101203.72
2018-09-07T05:44:06.955Z,101210.82
2018-09-07T05:46:35.452Z,101204.22
2018-09-07T05:49:03.820Z,101209.45
2018-09-07T05:51:32.346Z,101205.50
2018-09-07T05:54:01.078Z,101210.20
2018-09-07T05:56:29.566Z,101213.91
2018-09-07T05:58:57.940Z,101218.45
2018-09-07T06:01:26.349Z,101215.66
2018-09-07T06:03:54.691Z,101218.36
2018-09-07T06:06:23.109Z,101219.70
2018-09-07T06:08:51.471Z,101220.95
2018-09-07T06:11:19.947Z,101223.44
2018-09-07T06:13:48.515Z,101235.80
2018-09-07T06:16:16.844Z,101239.86
2018-09-07T06:18:45.278Z,101235.81
2018-09-07T06:21:13.828Z,101229.90
2018-09-07T06:23:42.576Z,101224.81
2018-09-07T06:26:11.570Z,101244.88
2018-09-07T06:28:39.883Z,101251.89
2018-09-07T06:31:08.507Z,101255.53
2018-09-07T06:33:37.069Z,101251.14
2018-09-07T06:36:05.776Z,101258.53
2018-09-07T06:38:34.246Z,101258.75
2018-09-07T06:41:02.506Z,101261.77
2018-09-07T06:43:30.980Z,101266.72
2018-09-07T06:45:59.279Z,101278.88
2018-09-07T06:48:27.612Z,101267.42
2018-09-07T06:50:56.299Z,101271.70
2018-09-07T06:53:24.657Z,101273.97
2018-09-07T06:55:52.992Z,101272.17
2018-09-07T06:58:21.906Z,101277.70
2018-09-07T07:00:50.322Z,101271.44
2018-09-07T07:03:18.913Z,101277.05
2018-09-07T07:05:47.274Z,101277.56
2018-09-07T07:08:15.801Z,101286.30
2018-09-07T07:10:44.107Z,101291.84
2018-09-07T07:13:12.483Z,101282.22
2018-09-07T07:15:41.039Z,101293.58
2018-09-07T07:18:09.505Z,101287.29
2018-09-07T07:20:37.943Z,101298.17
2018-09-07T07:23:06.397Z,101300.75
2018-09-07T07:25:34.796Z,101306.09
2018-09-07T07:28:03.480Z,101310.52
2018-09-07T07:30:31.854Z,101311.73
2018-09-07T07:33:00.236Z,101318.02
2018-09-07T07:35:28.756Z,101324.96
2018-09-07T07:37:57.441Z,101328.13
2018-09-07T07:40:25.970Z,101330.10
2018-09-07T07:42:54.333Z,101335.73
2018-09-07T07:45:22.717Z,101336.89
2018-09-07T07:47:51.205Z,101343.96
2018-09-07T07:50:19.616Z,101335.44
2018-09-07T07:52:47.990Z,101345.70
2018-09-07T07:55:16.339Z,101347.38
2018-09-07T07:57:44.746Z,101341.94
2018-09-07T08:00:12.810Z,101346.27
2018-09-07T08:02:41.130Z,101347.56
2018-09-07T08:05:09.528Z,101350.68
2018-09-07T08:07:37.875Z,101354.38
2018-09-07T08:10:06.483Z,101357.91
2018-09-07T08:12:34.922Z,101357.23
2018-09-07T08:15:03.255Z,101353.21
2018-09-07T08:17:31.866Z,101360.28
2018-09-07T08:20:00.324Z,101348.13
2018-09-07T08:22:28.706Z,101362.63
2018-09-07T08:24:56.722Z,101356.74
2018-09-07T08:27:25.138Z,101364.72
2018-09-07T08:29:53.529Z,101371.63
2018-09-07T08:32:21.974Z,101384.17
2018-09-07T08:34:50.441Z,101384.48
2018-09-07T08:37:18.811Z,101378.86
2018-09-07T08:39:47.132Z,101384.52
2018-09-07T08:42:15.786Z,101384.94
2018-09-07T08:44:44.309Z,101390.11
2018-09-07T08:47:12.704Z,101389.11
2018-09-07T08:49:41.020Z,101394.00
2018-09-07T08:52:09.606Z,101391.62
2018-09-07T08:54:38.360Z,101389.63
2018-09-07T08:57:06.745Z,101397.59
2018-09-07T08:59:34.770Z,101397.27
2018-09-07T09:02:03.232Z,101396.09
2018-09-07T09:04:31.546Z,101386.11
2018-09-07T09:07:00.123Z,101385.04
2018-09-07T09:09:28.459Z,101399.70
2018-09-07T09:11:56.835Z,101401.53
2018-09-07T09:14:25.374Z,101413.09
2018-09-07T09:16:53.731Z,101414.25
2018-09-07T09:19:22.112Z,101423.84
2018-09-07T09:21:50.549Z,101424.83
2018-09-07T09:24:19.056Z,101424.26
2018-09-07T09:26:47.395Z,101426.79
2018-09-07T09:29:15.777Z,101431.22
2018-09-07T09:31:44.179Z,101434.89
2018-09-07T09:34:12.743Z,101443.08
2018-09-07T09:36:41.131Z,101448.73
2018-09-07T09:39:10.908Z,101447.60
2018-09-07T09:41:39.415Z,101443.63
2018-09-07T09:44:08.431Z,101451.64
2018-09-07T09:46:37.016Z,101451.37
2018-09-07T09:49:05.549Z,101457.69
2018-09-07T09:51:33.921Z,101460.41
2018-09-07T09:54:03.333Z,101458.77
2018-09-07T09:56:31.893Z,101467.61
2018-09-07T09:59:00.194Z,101471.67
2018-09-07T10:01:34.371Z,101469.41
2018-09-07T10:04:07.612Z,101479.38
2018-09-07T10:06:36.822Z,101471.16
2018-09-07T10:09:10.516Z,101477.66
2018-09-07T10:11:39.207Z,101483.63
2018-09-07T10:14:07.534Z,101477.09
2018-09-07T10:16:36.067Z,101478.56
2018-09-07T10:19:04.547Z,101476.64
2018-09-07T10:21:32.791Z,101484.77
2018-09-07T10:24:01.569Z,101489.92
2018-09-07T10:26:30.071Z,101477.89
2018-09-07T10:28:58.444Z,101476.13
2018-09-07T10:31:26.854Z,101475.08
2018-09-07T10:33:55.333Z,101480.94
2018-09-07T10:36:23.715Z,101479.11
2018-09-07T10:38:52.819Z,101479.19
2018-09-07T10:41:21.774Z,101490.77
2018-09-07T10:43:50.115Z,101495.43
2018-09-07T10:46:18.694Z,101465.86
2018-09-07T10:48:47.294Z,101518.97
2018-09-07T10:51:15.667Z,101516.08
2018-09-07T10:53:44.237Z,101501.13
2018-09-07T10:56:12.669Z,101506.30
2018-09-07T10:58:41.885Z,101513.13
2018-09-07T11:01:11.035Z,101510.77
2018-09-07T11:03:40.296Z,101498.36
2018-09-07T11:06:10.337Z,101506.98
2018-09-07T11:08:39.344Z,101509.62
2018-09-07T11:11:08.808Z,101506.91
2018-09-07T11:13:37.864Z,101504.37
2018-09-07T11:16:07.144Z,101515.61
2018-09-07T11:18:36.099Z,101516.52
2018-09-07T11:21:05.200Z,101530.57
2018-09-07T11:23:34.524Z,101530.39
2018-09-07T11:26:03.304Z,101530.09
2018-09-07T11:28:31.997Z,101520.50
2018-09-07T11:31:00.957Z,101537.98
2018-09-07T11:33:31.347Z,101539.13
2018-09-07T11:36:02.920Z,101532.20
2018-09-07T11:38:31.861Z,101539.95
2018-09-07T11:41:02.627Z,101539.27
2018-09-07T11:43:32.369Z,101540.57
2018-09-07T11:46:04.605Z,101537.19
2018-09-07T11:48:34.477Z,101539.94
2018-09-07T11:51:03.199Z,101544.70
2018-09-07T11:53:32.366Z,101550.15
2018-09-07T11:56:01.063Z,101555.21
2018-09-07T11:58:30.475Z,101548.64
2018-09-07T12:01:00.009Z,101551.09
2018-09-07T12:03:28.672Z,101551.84
2018-09-07T12:05:57.894Z,101553.05
2018-09-07T12:08:27.072Z,101556.48
2018-09-07T12:10:59.673Z,101563.95
2018-09-07T12:13:28.523Z,101557.06
2018-09-07T12:15:57.695Z,101544.80
2018-09-07T12:18:26.761Z,101560.35
2018-09-07T12:20:55.638Z,101560.62
2018-09-07T12:23:24.502Z,101558.25
2018-09-07T12:25:53.005Z,101564.58
2018-09-07T12:28:22.554Z,101574.84
2018-09-07T12:30:51.141Z,101557.52
2018-09-07T12:33:19.670Z,101571.09
2018-09-07T12:35:49.408Z,101570.26
2018-09-07T12:38:18.656Z,101576.03
2018-09-07T12:40:47.144Z,101576.37
2018-09-07T12:43:17.029Z,101576.23
2018-09-07T12:45:46.172Z,101571.75
2018-09-07T12:48:14.772Z,101584.80
2018-09-07T12:50:43.567Z,101602.59
2018-09-07T12:53:12.182Z,101596.72
2018-09-07T12:55:40.710Z,101598.71
2018-09-07T12:58:09.252Z,101601.20
2018-09-07T13:00:37.742Z,101606.61
2018-09-07T13:03:06.589Z,101611.56
2018-09-07T13:05:42.423Z,101601.88
2018-09-07T13:08:12.610Z,101600.20
2018-09-07T13:10:41.885Z,101612.73
2018-09-07T13:13:10.638Z,101604.88
2018-09-07T13:15:39.218Z,101598.44
2018-09-07T13:18:07.825Z,101601.84
2018-09-07T13:20:39.148Z,101605.47
2018-09-07T13:23:07.746Z,101612.57
2018-09-07T13:25:36.402Z,101614.94
2018-09-07T13:28:06.935Z,101610.34
2018-09-07T13:30:36.367Z,101625.70
2018-09-07T13:33:08.476Z,101619.23
2018-09-07T13:35:44.486Z,101613.14
2018-09-07T13:38:14.741Z,101625.95
2018-09-07T13:40:43.213Z,101624.96
2018-09-07T13:43:11.875Z,101626.31
2018-09-07T13:45:40.256Z,101636.23
2018-09-07T13:48:18.949Z,101626.41
2018-09-07T13:50:47.655Z,101624.75
2018-09-07T13:53:16.385Z,101627.91
2018-09-07T13:55:45.141Z,101633.58
2018-09-07T13:58:14.393Z,101635.12
2018-09-07T14:00:43.103Z,101648.07
2018-09-07T14:03:11.924Z,101645.40
2018-09-07T14:05:40.665Z,101646.95
2018-09-07T14:08:09.504Z,101636.74
2018-09-07T14:10:39.714Z,101645.35
2018-09-07T14:13:08.605Z,101642.38
2018-09-07T14:15:37.366Z,101642.95
2018-09-07T14:18:07.520Z,101636.00
2018-09-07T14:20:38.480Z,101638.66
2018-09-07T14:23:07.666Z,101633.97
2018-09-07T14:25:36.213Z,101643.27
2018-09-07T14:28:09.229Z,101646.38
2018-09-07T14:30:39.063Z,101638.90
2018-09-07T14:33:10.805Z,101640.36
2018-09-07T14:38:20.604Z,101627.45
2018-09-07T14:40:51.964Z,101633.20
2018-09-07T14:43:20.809Z,101637.14
2018-09-07T14:45:50.639Z,101630.98
2018-09-07T14:48:22.425Z,101638.02
2018-09-07T14:50:52.864Z,101652.95
2018-09-07T14:53:22.440Z,101644.34
2018-09-07T14:55:52.202Z,101651.30
2018-09-07T14:58:23.947Z,101652.14
2018-09-07T15:00:54.326Z,101660.19
2018-09-07T15:03:23.818Z,101638.16
2018-09-07T15:05:52.485Z,101660.78
2018-09-07T15:08:21.191Z,101655.66
2018-09-07T15:10:49.631Z,101654.75
2018-09-07T15:13:18.916Z,101652.94
2018-09-07T15:15:47.641Z,101661.43
2018-09-07T15:18:17.022Z,101660.17
2018-09-07T15:20:45.772Z,101661.66
2018-09-07T15:23:14.277Z,101653.62
2018-09-07T15:25:42.833Z,101658.31
2018-09-07T15:28:12.086Z,101661.33
2018-09-07T15:30:40.716Z,101653.89
2018-09-07T15:33:09.207Z,101654.75
2018-09-07T15:35:38.091Z,101654.99
2018-09-07T15:38:06.572Z,101661.48
2018-09-07T15:40:35.141Z,101662.58
2018-09-07T15:43:03.530Z,101662.05
2018-09-07T15:45:32.060Z,101656.80
2018-09-07T15:48:00.504Z,101669.38
2018-09-07T15:50:28.874Z,101671.47
2018-09-07T15:52:57.288Z,101668.30
2018-09-07T15:55:26.791Z,101659.66
2018-09-07T15:57:55.488Z,101669.67
2018-09-07T16:00:23.936Z,101660.36
2018-09-07T16:02:52.712Z,101663.75
2018-09-07T16:05:21.283Z,101665.81
2018-09-07T16:07:49.969Z,101666.81
2018-09-07T16:10:19.424Z,101669.01
2018-09-07T16:12:48.117Z,101664.41
2018-09-07T16:15:16.823Z,101664.34
2018-09-07T16:17:45.725Z,101662.60
2018-09-07T16:20:14.462Z,101662.42
2018-09-07T16:22:43.781Z,101662.53
2018-09-07T16:25:12.490Z,101672.19
2018-09-07T16:27:41.456Z,101662.41
2018-09-07T16:30:11.204Z,101666.74
2018-09-07T16:32:41.130Z,101673.20
2018-09-07T16:35:10.002Z,101677.24
2018-09-07T16:37:38.951Z,101669.50
2018-09-07T16:40:07.616Z,101671.69
2018-09-07T16:42:36.623Z,101682.00
2018-09-07T16:45:05.269Z,101677.66
2018-09-07T16:47:34.470Z,101674.90
2018-09-07T16:50:02.917Z,101686.70
2018-09-07T16:52:31.460Z,101680.70
2018-09-07T16:55:00.932Z,101689.23
2018-09-07T16:57:29.699Z,101686.16
2018-09-07T16:59:58.137Z,101684.11
2018-09-07T17:02:27.061Z,101692.28
2018-09-07T17:04:55.951Z,101697.49
2018-09-07T17:07:24.346Z,101694.02
2018-09-07T17:09:52.923Z,101693.42
2018-09-07T17:12:21.490Z,101688.24
2018-09-07T17:14:50.209Z,101695.94
2018-09-07T17:17:19.092Z,101690.13
2018-09-07T17:19:47.850Z,101695.80
2018-09-07T17:22:16.468Z,101697.29
2018-09-07T17:24:45.373Z,101695.58
2018-09-07T17:27:14.371Z,101695.22
2018-09-07T17:29:42.945Z,101696.73
2018-09-07T17:32:12.345Z,101693.51
2018-09-07T17:34:40.862Z,101693.61
2018-09-07T17:37:09.771Z,101692.30
2018-09-07T17:39:38.478Z,101688.42
2018-09-07T17:42:07.209Z,101692.58
2018-09-07T17:44:35.915Z,101696.92
2018-09-07T17:47:06.172Z,101692.40
2018-09-07T17:49:34.680Z,101693.98
2018-09-07T17:52:03.534Z,101698.42
2018-09-07T17:54:32.809Z,101700.28
2018-09-07T17:57:01.750Z,101702.05
2018-09-07T17:59:30.712Z,101698.05
2018-09-07T18:01:59.329Z,101704.84
2018-09-07T18:04:29.640Z,101712.66
2018-09-07T18:06:59.099Z,101713.53
2018-09-07T18:12:03.334Z,101710.46
2018-09-07T18:14:32.193Z,101710.45
2018-09-07T18:17:01.113Z,101717.63
2018-09-07T18:19:29.844Z,101714.92
2018-09-07T18:21:58.180Z,101716.52
2018-09-07T18:24:27.377Z,101719.17
2018-09-07T18:26:55.778Z,101727.91
2018-09-07T18:29:24.532Z,101719.77
2018-09-07T18:31:53.306Z,101727.70
2018-09-07T18:34:22.073Z,101735.37
2018-09-07T18:36:50.849Z,101729.80
2018-09-07T18:39:20.821Z,101734.78
2018-09-07T18:41:49.505Z,101735.92
2018-09-07T18:44:18.281Z,101740.45
2018-09-07T18:46:47.019Z,101738.98
2018-09-07T18:49:17.435Z,101743.48
2018-09-07T18:51:51.371Z,101741.26
2018-09-07T18:54:19.959Z,101744.13
2018-09-07T18:56:48.585Z,101751.30
2018-09-07T18:59:17.305Z,101750.98
2018-09-07T19:01:45.784Z,101745.35
2018-09-07T19:04:14.840Z,101750.92
2018-09-07T19:06:43.578Z,101750.30
2018-09-07T19:09:12.103Z,101754.50
2018-09-07T19:11:40.982Z,101745.94
2018-09-07T19:14:09.670Z,101747.09
2018-09-07T19:16:38.540Z,101743.73
2018-09-07T19:19:07.362Z,101740.80
2018-09-07T19:21:37.759Z,101740.00
2018-09-07T19:24:06.413Z,101737.86
2018-09-07T19:26:35.385Z,101748.94
2018-09-07T19:29:04.195Z,101754.64
2018-09-07T19:31:32.682Z,101751.78
2018-09-07T19:34:01.276Z,101745.42
2018-09-07T19:36:30.124Z,101752.48
2018-09-07T19:38:58.865Z,101748.41
2018-09-07T19:41:27.334Z,101749.67
2018-09-07T19:43:55.745Z,101751.80
2018-09-07T19:46:24.288Z,101758.95
2018-09-07T19:48:53.262Z,101754.56
2018-09-07T19:51:21.732Z,101757.59
2018-09-07T19:53:50.127Z,101759.70
2018-09-07T19:56:18.530Z,101755.22
2018-09-07T19:58:47.041Z,101762.25
2018-09-07T20:01:15.596Z,101758.28
2018-09-07T20:03:44.147Z,101754.97
2018-09-07T20:06:12.543Z,101758.00
2018-09-07T20:08:41.832Z,101752.48
2018-09-07T20:11:10.398Z,101753.45
2018-09-07T20:13:39.118Z,101752.45
2018-09-07T20:16:07.734Z,101751.86
2018-09-07T20:18:37.059Z,101749.64
2018-09-07T20:23:41.251Z,101759.68
2018-09-07T20:26:09.904Z,101756.08
2018-09-07T20:28:40.181Z,101758.55
2018-09-07T20:31:08.818Z,101754.50
2018-09-07T20:33:38.553Z,101756.43
2018-09-07T20:36:07.616Z,101759.25
2018-09-07T20:38:37.427Z,101755.81
2018-09-07T20:41:06.307Z,101757.97
2018-09-07T20:43:35.119Z,101759.91
2018-09-07T20:46:03.897Z,101746.26
2018-09-07T20:48:32.533Z,101731.77
2018-09-07T20:51:02.333Z,101751.86
2018-09-07T20:53:31.637Z,101751.78
2018-09-07T20:56:01.307Z,101756.01
2018-09-07T20:58:30.687Z,101762.88
2018-09-07T21:00:59.230Z,101755.95
2018-09-07T21:03:28.292Z,101759.45
2018-09-07T21:05:58.311Z,101759.01
2018-09-07T21:08:26.822Z,101760.69
2018-09-07T21:10:56.396Z,101754.33
2018-09-07T21:13:25.696Z,101757.63
2018-09-07T21:15:54.775Z,101757.59
2018-09-07T21:18:23.255Z,101763.25
2018-09-07T21:20:51.910Z,101768.91
2018-09-07T21:23:21.833Z,101766.00
2018-09-07T21:25:51.577Z,101759.77
2018-09-07T21:28:20.565Z,101764.95
2018-09-07T21:30:50.079Z,101770.45
2018-09-07T21:33:18.620Z,101764.66
2018-09-07T21:35:48.049Z,101769.22
2018-09-07T21:38:16.732Z,101765.09
2018-09-07T21:40:45.352Z,101765.63
2018-09-07T21:43:13.924Z,101767.66
2018-09-07T21:45:43.183Z,101770.21
2018-09-07T21:48:11.880Z,101768.59
2018-09-07T21:50:41.311Z,101776.89
2018-09-07T21:53:10.635Z,101782.53
2018-09-07T21:55:39.326Z,101778.30
2018-09-07T21:58:08.819Z,101775.99
2018-09-07T22:00:37.466Z,101777.80
2018-09-07T22:03:06.172Z,101779.86
2018-09-07T22:05:34.685Z,101782.08
2018-09-07T22:08:04.094Z,101781.38
2018-09-07T22:10:32.672Z,101785.71
2018-09-07T22:13:01.408Z,101791.50
2018-09-07T22:15:29.845Z,101787.56
2018-09-07T22:17:58.449Z,101788.88
2018-09-07T22:20:27.194Z,101799.88
2018-09-07T22:22:55.649Z,101792.78
2018-09-07T22:25:24.200Z,101794.20
2018-09-07T22:27:52.737Z,101794.38
2018-09-07T22:30:22.515Z,101799.64
2018-09-07T22:32:50.960Z,101802.28
2018-09-07T22:35:26.144Z,101805.83
2018-09-07T22:37:54.644Z,101812.60
2018-09-07T22:40:23.107Z,101808.79
2018-09-07T22:42:51.739Z,101817.66
2018-09-07T22:45:20.779Z,101819.59
2018-09-07T22:47:49.279Z,101813.66
2018-09-07T22:50:17.730Z,101812.28
2018-09-07T22:52:46.154Z,101807.30
2018-09-07T22:55:15.176Z,101812.56
2018-09-07T22:57:43.615Z,101812.94
2018-09-07T23:00:11.707Z,101816.47
2018-09-07T23:02:40.286Z,101815.70
2018-09-07T23:05:08.665Z,101818.52
2018-09-07T23:07:40.697Z,101818.09
2018-09-07T23:10:09.535Z,101822.81
2018-09-07T23:12:38.021Z,101831.42
2018-09-07T23:15:06.549Z,101827.83
2018-09-07T23:17:35.060Z,101826.03
2018-09-07T23:20:03.669Z,101824.36
2018-09-07T23:22:32.054Z,101824.13
2018-09-07T23:25:00.579Z,101825.98
2018-09-07T23:27:28.617Z,101822.38
2018-09-07T23:29:57.015Z,101824.27
2018-09-07T23:32:25.919Z,101826.98
2018-09-07T23:34:54.502Z,101825.94
2018-09-07T23:37:23.268Z,101828.97
2018-09-07T23:39:51.720Z,101822.99
2018-09-07T23:42:20.176Z,101831.82
2018-09-07T23:44:48.775Z,101827.13
2018-09-07T23:47:17.263Z,101830.69
2018-09-07T23:49:45.803Z,101833.71
2018-09-07T23:52:14.291Z,101829.89
2018-09-07T23:54:42.890Z,101829.98
2018-09-07T23:57:12.200Z,101837.87
2018-09-07T23:59:40.741Z,101828.20
